Time;durP1;ratioP1;P1;durP2;ratioP2;P2;SDS_P1;SDS_P2;PMS_P1;PMS_P2;Temp;Humidity;BMP_temperature;BMP_pressure;BME280_temperature;BME280_humidity;BME280_pressure;Samples;Min_cycle;Max_cycle;Signal;HPM_P1;HPM_P2
2022/08/01 00:02:07;;;;;;;4.03;2.15;;;;;;;22.38;52.80;98633.09;5033944;27;102920;-71
2022/08/01 00:04:36;;;;;;;1.63;1.52;;;;;;;22.37;53.09;98632.25;5029789;27;103298;-72
2022/08/01 00:07:04;;;;;;;1.90;1.40;;;;;;;22.42;52.61;98629.84;5039858;27;103037;-71
2022/08/01 00:09:32;;;;;;;2.35;1.45;;;;;;;22.43;52.95;98636.88;5035891;27;102615;-71
2022/08/01 00:12:00;;;;;;;1.67;1.58;;;;;;;22.43;52.76;98636.03;5038447;27;105050;-72
2022/08/01 00:14:29;;;;;;;3.08;2.15;;;;;;;22.38;52.98;98638.47;5034257;27;103103;-73
2022/08/01 00:16:59;;;;;;;1.88;1.70;;;;;;;22.40;53.16;98631.88;5038500;27;102883;-72
2022/08/01 00:19:35;;;;;;;1.80;1.70;;;;;;;22.37;53.09;98632.25;5041409;27;102761;-72
2022/08/01 00:22:02;;;;;;;1.90;1.50;;;;;;;22.37;53.13;98631.44;5042026;27;104535;-72
2022/08/01 00:24:31;;;;;;;1.80;1.70;;;;;;;22.38;53.02;98639.31;5034407;27;103386;-71
2022/08/01 00:26:59;;;;;;;2.17;1.80;;;;;;;22.35;53.23;98637.00;5029743;27;103080;-73
2022/08/01 00:29:27;;;;;;;2.38;1.67;;;;;;;22.33;53.23;98636.34;5042142;27;102711;-72
2022/08/01 00:32:16;;;;;;;2.55;1.75;;;;;;;22.33;53.43;98636.34;5033139;27;103991;-72
2022/08/01 00:34:44;;;;;;;1.67;1.58;;;;;;;22.29;53.77;98642.28;5032078;27;103060;-72
2022/08/01 00:37:12;;;;;;;1.75;1.60;;;;;;;22.24;53.82;98637.47;5033509;27;102980;-72
2022/08/01 00:39:43;;;;;;;2.08;1.75;;;;;;;22.21;54.17;98643.22;5037467;27;104228;-71
2022/08/01 00:42:12;;;;;;;2.22;1.80;;;;;;;22.18;54.26;98638.19;5041533;27;104099;-72
2022/08/01 00:44:41;;;;;;;2.75;1.80;;;;;;;22.13;54.43;98651.38;5037152;27;103129;-73
2022/08/01 00:47:09;;;;;;;2.08;1.40;;;;;;;22.16;54.34;98644.78;5029066;27;103060;-72
2022/08/01 00:49:38;;;;;;;1.98;1.88;;;;;;;22.16;54.63;98644.78;5032512;27;103525;-72
2022/08/01 00:52:07;;;;;;;1.65;1.55;;;;;;;22.12;54.83;98644.31;5039009;27;103248;-72
2022/08/01 00:54:36;;;;;;;1.88;1.77;;;;;;;22.09;55.08;98655.44;5037289;27;103112;-72
2022/08/01 00:57:04;;;;;;;1.70;1.60;;;;;;;22.07;54.94;98652.13;5029189;27;102769;-72
2022/08/01 00:59:40;;;;;;;1.52;1.42;;;;;;;22.07;55.50;98652.13;5036523;27;103203;-72
2022/08/01 01:02:08;;;;;;;1.40;1.30;;;;;;;22.06;55.22;98650.47;5045072;27;104730;-71
2022/08/01 01:04:43;;;;;;;2.85;2.10;;;;;;;22.04;55.54;98654.34;5034894;27;103201;-71
2022/08/01 01:07:20;;;;;;;2.55;2.35;;;;;;;21.98;56.25;98647.03;5033034;27;102741;-72
2022/08/01 01:09:57;;;;;;;1.70;1.60;;;;;;;22.00;55.84;98645.81;5032510;27;102798;-72
2022/08/01 01:12:30;;;;;;;1.80;1.70;;;;;;;22.03;55.88;98656.22;5035865;27;103213;-72
2022/08/01 01:15:09;;;;;;;1.88;1.77;;;;;;;22.01;55.86;98658.22;5030381;27;103196;-72
2022/08/01 01:17:41;;;;;;;1.98;1.77;;;;;;;22.00;56.50;98664.66;5035020;27;102807;-72
2022/08/01 01:20:24;;;;;;;1.95;1.85;;;;;;;22.00;56.35;98659.25;5035606;27;103899;-71
2022/08/01 01:23:07;;;;;;;2.00;1.80;;;;;;;22.00;56.83;98661.97;5036545;27;103203;-72
2022/08/01 01:25:54;;;;;;;1.73;1.63;;;;;;;22.01;56.62;98658.22;5039942;27;103424;-72
2022/08/01 01:28:36;;;;;;;1.73;1.63;;;;;;;22.01;56.85;98660.91;5036597;27;102766;-72
2022/08/01 01:31:09;;;;;;;1.50;1.40;;;;;;;21.97;57.01;98659.63;5035865;27;102657;-72
2022/08/01 01:33:40;;;;;;;2.28;2.08;;;;;;;21.94;57.46;98662.69;5028498;27;103362;-73
2022/08/01 01:36:17;;;;;;;2.22;2.03;;;;;;;21.93;58.14;98672.59;5033474;27;103834;-72
2022/08/01 01:38:47;;;;;;;2.08;1.83;;;;;;;21.96;57.50;98663.31;5033802;27;102581;-72
2022/08/01 01:41:18;;;;;;;2.08;1.75;;;;;;;21.94;58.14;98671.59;5039670;27;102616;-72
2022/08/01 01:43:50;;;;;;;2.97;1.80;;;;;;;21.93;58.22;98666.38;5031581;27;103411;-72
2022/08/01 01:46:26;;;;;;;3.28;2.10;;;;;;;21.96;58.03;98666.03;5039431;27;103190;-72
2022/08/01 01:48:57;;;;;;;1.80;1.70;;;;;;;21.92;58.25;98670.09;5035603;27;103426;-72
2022/08/01 01:51:28;;;;;;;1.73;1.63;;;;;;;21.88;58.77;98672.31;5029562;27;102797;-73
2022/08/01 01:53:57;;;;;;;1.90;1.80;;;;;;;21.89;58.80;98673.97;5032905;27;103823;-72
2022/08/01 01:56:30;;;;;;;1.90;1.80;;;;;;;21.86;59.06;98676.19;5034203;27;103170;-73
2022/08/01 01:59:02;;;;;;;2.40;2.20;;;;;;;21.78;59.61;98681.63;5026824;27;102867;-73
2022/08/01 02:01:35;;;;;;;2.88;2.58;;;;;;;21.61;60.34;98682.78;5026767;27;104140;-73
2022/08/01 02:04:25;;;;;;;2.40;2.20;;;;;;;21.57;60.33;98676.09;5035828;27;103411;-72
2022/08/01 02:06:53;;;;;;;2.88;2.55;;;;;;;21.57;60.21;98676.09;5033689;27;103135;-73
2022/08/01 02:09:24;;;;;;;2.65;2.45;;;;;;;21.51;60.94;98676.81;5036944;27;102912;-72
2022/08/01 02:11:52;;;;;;;3.00;2.60;;;;;;;21.26;61.96;98678.84;5029820;27;102728;-72
2022/08/01 02:14:36;;;;;;;2.72;2.53;;;;;;;21.19;62.42;98684.09;5029286;27;104503;-72
2022/08/01 02:17:11;;;;;;;5.45;2.53;;;;;;;21.20;62.33;98675.03;5033546;27;102961;-71
2022/08/01 02:19:40;;;;;;;2.65;2.30;;;;;;;21.23;62.04;98679.22;5036746;27;103342;-72
2022/08/01 02:22:12;;;;;;;2.90;2.00;;;;;;;21.27;61.82;98684.06;5038858;27;102948;-71
2022/08/01 02:24:45;;;;;;;3.08;2.30;;;;;;;21.18;62.85;98693.19;5032854;27;103346;-71
2022/08/01 02:27:27;;;;;;;2.53;2.22;;;;;;;21.14;62.67;98691.00;5031573;27;104040;-72
2022/08/01 02:29:59;;;;;;;3.95;2.67;;;;;;;21.13;62.58;98690.22;5035912;27;102668;-72
2022/08/01 02:32:33;;;;;;;3.03;2.38;;;;;;;21.13;63.20;98690.22;5027222;27;103953;-73
2022/08/01 02:35:03;;;;;;;2.42;2.22;;;;;;;21.14;62.77;98691.00;5034072;27;103153;-72
2022/08/01 02:37:35;;;;;;;2.15;1.95;;;;;;;21.10;63.28;98684.34;5037187;27;103648;-72
2022/08/01 02:40:05;;;;;;;1.85;1.75;;;;;;;21.14;62.62;98691.00;5029805;27;103019;-74
2022/08/01 02:42:35;;;;;;;2.45;2.25;;;;;;;21.14;63.15;98691.84;5031547;27;103068;-74
2022/08/01 02:45:08;;;;;;;1.95;1.80;;;;;;;21.09;63.27;98696.94;5034456;27;103285;-73
2022/08/01 02:47:39;;;;;;;2.08;1.90;;;;;;;21.05;63.83;98694.75;5031186;27;103720;-73
2022/08/01 02:50:11;;;;;;;2.10;1.77;;;;;;;20.94;63.99;98701.34;5026246;27;102657;-74
2022/08/01 02:52:42;;;;;;;3.30;2.83;;;;;;;20.79;65.29;98695.91;5026030;27;102728;-73
2022/08/01 02:55:12;;;;;;;2.00;1.88;;;;;;;20.76;64.76;98698.94;5028872;27;103393;-73
2022/08/01 02:57:42;;;;;;;1.90;1.80;;;;;;;20.84;64.83;98703.41;5035204;27;103285;-73
2022/08/01 03:00:20;;;;;;;2.20;2.00;;;;;;;20.87;65.04;98707.59;5023183;27;103012;-74
2022/08/01 03:02:55;;;;;;;2.15;1.95;;;;;;;20.82;65.42;98705.44;5029564;27;103555;-73
2022/08/01 03:05:25;;;;;;;2.85;2.20;;;;;;;20.82;65.54;98705.44;5030251;27;103286;-72
2022/08/01 03:07:55;;;;;;;5.97;2.20;;;;;;;20.89;65.48;98701.03;5028426;27;103652;-73
2022/08/01 03:10:32;;;;;;;2.20;2.00;;;;;;;20.91;65.19;98696.34;5033133;27;102762;-74
2022/08/01 03:13:05;;;;;;;1.90;1.80;;;;;;;20.94;65.16;98706.72;5026516;27;102698;-75
2022/08/01 03:15:37;;;;;;;2.20;2.03;;;;;;;20.93;65.20;98696.16;5027708;27;104872;-74
2022/08/01 03:18:11;;;;;;;2.80;2.30;;;;;;;20.94;65.65;98698.66;5029778;27;104509;-73
2022/08/01 03:20:41;;;;;;;2.92;1.88;;;;;;;20.98;64.54;98696.47;5036052;27;102936;-75
2022/08/01 03:23:12;;;;;;;1.75;1.65;;;;;;;21.03;64.26;98700.28;5029147;27;102781;-74
2022/08/01 03:25:42;;;;;;;2.05;1.85;;;;;;;21.03;65.11;98702.97;5025646;27;104085;-74
2022/08/01 03:28:14;;;;;;;1.67;1.58;;;;;;;20.99;65.21;98703.50;5033904;27;103212;-74
2022/08/01 03:30:43;;;;;;;2.10;1.90;;;;;;;20.99;64.83;98703.50;5029013;27;102849;-73
2022/08/01 03:33:13;;;;;;;2.50;1.98;;;;;;;20.96;65.38;98702.03;5026371;27;103102;-74
2022/08/01 03:35:48;;;;;;;1.92;1.83;;;;;;;21.01;64.53;98704.16;5025912;27;103324;-74
2022/08/01 03:38:20;;;;;;;1.45;1.35;;;;;;;21.01;64.98;98707.69;5029682;27;103299;-74
2022/08/01 03:40:52;;;;;;;1.80;1.70;;;;;;;21.00;64.26;98711.38;5029143;27;103041;-72
2022/08/01 03:43:27;;;;;;;1.83;1.73;;;;;;;21.01;64.42;98706.84;5030796;27;102779;-72
2022/08/01 03:46:04;;;;;;;2.20;2.00;;;;;;;20.89;65.49;98709.09;5023744;27;103337;-73
2022/08/01 03:48:38;;;;;;;1.88;1.77;;;;;;;20.86;65.37;98709.44;5030004;27;103461;-72
2022/08/01 03:51:08;;;;;;;2.55;2.00;;;;;;;20.69;66.38;98708.69;5033954;27;102899;-72
2022/08/01 03:53:37;;;;;;;2.08;1.92;;;;;;;20.74;66.18;98708.19;5028089;27;105555;-73
2022/08/01 03:56:11;;;;;;;2.15;1.80;;;;;;;20.75;65.76;98717.88;5024841;27;103848;-75
2022/08/01 03:58:43;;;;;;;1.58;1.48;;;;;;;20.76;66.30;98714.19;5025697;27;103682;-74
2022/08/01 04:01:17;;;;;;;2.05;1.95;;;;;;;20.75;65.57;98707.16;5026098;27;102685;-74
2022/08/01 04:03:47;;;;;;;3.03;2.05;;;;;;;20.76;65.90;98706.16;5029650;27;103845;-74
2022/08/01 04:06:15;;;;;;;2.05;1.85;;;;;;;20.75;65.55;98710.66;5030802;27;103911;-73
2022/08/01 04:08:55;;;;;;;2.08;1.98;;;;;;;20.73;66.33;98711.84;5028115;27;103039;-74
2022/08/01 04:11:27;;;;;;;3.47;2.10;;;;;;;20.74;66.42;98716.22;5022195;27;102987;-74
2022/08/01 04:13:55;;;;;;;1.83;1.73;;;;;;;20.67;67.45;98707.19;5029246;27;102520;-74
2022/08/01 04:16:24;;;;;;;2.40;2.20;;;;;;;20.68;66.88;98712.41;5027347;27;103374;-72
2022/08/01 04:18:54;;;;;;;2.13;1.70;;;;;;;20.77;66.77;98715.88;5029371;27;103136;-74
2022/08/01 04:21:24;;;;;;;1.65;1.55;;;;;;;20.85;66.31;98710.47;5026665;27;102792;-74
2022/08/01 04:23:54;;;;;;;2.35;2.00;;;;;;;20.91;66.47;98717.84;5027445;27;102892;-73
2022/08/01 04:26:23;;;;;;;2.05;1.85;;;;;;;20.93;66.14;98726.53;5030236;27;103278;-73
2022/08/01 04:28:54;;;;;;;1.98;1.88;;;;;;;21.05;65.43;98724.31;5028122;27;103013;-73
2022/08/01 04:31:26;;;;;;;2.45;2.15;;;;;;;21.07;66.59;98727.63;5026819;27;102798;-74
2022/08/01 04:33:58;;;;;;;2.13;1.83;;;;;;;21.14;66.13;98729.47;5027442;27;104360;-72
2022/08/01 04:36:29;;;;;;;2.10;1.80;;;;;;;21.11;66.51;98729.81;5023904;27;104162;-72
2022/08/01 04:39:01;;;;;;;2.97;2.50;;;;;;;21.17;66.59;98723.75;5028086;27;104276;-71
2022/08/01 04:41:32;;;;;;;2.05;1.90;;;;;;;21.15;66.59;98725.78;5030227;27;103516;-72
2022/08/01 04:44:00;;;;;;;2.75;2.55;;;;;;;21.16;67.13;98729.31;5024295;27;102780;-72
2022/08/01 04:46:29;;;;;;;3.47;3.10;;;;;;;21.09;67.95;98726.47;5025614;27;103313;-72
2022/08/01 04:49:00;;;;;;;3.10;2.30;;;;;;;21.15;67.12;98733.00;5032980;27;104884;-72
2022/08/01 04:51:28;;;;;;;2.63;2.10;;;;;;;21.26;67.06;98727.22;5026838;27;102858;-72
2022/08/01 04:53:58;;;;;;;3.65;1.90;;;;;;;21.30;66.80;98718.63;5033558;27;103788;-72
2022/08/01 04:56:26;;;;;;;2.50;2.00;;;;;;;21.34;67.24;98711.88;5027564;27;103317;-72
2022/08/01 05:01:38;;;;;;;2.10;1.90;;;;;;;21.42;67.35;98720.91;5031695;27;102843;-71
2022/08/01 05:04:07;;;;;;;2.20;2.00;;;;;;;21.53;66.82;98728.56;5033633;27;102694;-74
2022/08/01 05:06:35;;;;;;;2.78;2.28;;;;;;;21.57;67.52;98719.09;5026692;27;103711;-74
2022/08/01 05:09:03;;;;;;;2.25;2.05;;;;;;;21.68;66.64;98708.75;5032682;27;103557;-74
2022/08/01 05:11:31;;;;;;;5.38;2.58;;;;;;;21.77;66.61;98712.22;5028941;27;102966;-74
2022/08/01 05:14:01;;;;;;;2.90;2.10;;;;;;;21.76;66.70;98713.22;5029622;27;102708;-74
2022/08/01 05:16:29;;;;;;;2.50;2.20;;;;;;;21.81;67.28;98718.91;5028779;27;104214;-73
2022/08/01 05:18:57;;;;;;;2.53;2.33;;;;;;;21.85;67.42;98722.91;5028305;27;104049;-72
2022/08/01 05:21:26;;;;;;;5.65;2.22;;;;;;;21.96;67.24;98719.81;5030723;27;102669;-73
2022/08/01 05:23:54;;;;;;;2.25;2.05;;;;;;;22.09;66.06;98714.63;5033138;27;103435;-73
2022/08/01 05:26:22;;;;;;;2.15;2.00;;;;;;;22.19;65.97;98712.53;5032131;27;103242;-74
2022/08/01 05:28:50;;;;;;;2.45;1.88;;;;;;;22.26;65.89;98712.63;5028036;27;103259;-72
2022/08/01 05:31:18;;;;;;;2.55;1.77;;;;;;;22.35;66.09;98724.97;5030285;27;103116;-73
2022/08/01 05:33:46;;;;;;;3.00;2.45;;;;;;;22.41;66.24;98717.00;5030112;27;103853;-72
2022/08/01 05:36:14;;;;;;;1.83;1.73;;;;;;;22.45;65.44;98712.94;5029662;27;103258;-74
2022/08/01 05:38:43;;;;;;;4.45;2.15;;;;;;;22.49;65.21;98727.66;5024932;27;103493;-73
2022/08/01 05:41:11;;;;;;;3.05;1.90;;;;;;;22.57;65.53;98731.31;5027416;27;102939;-73
2022/08/01 05:43:39;;;;;;;5.05;2.20;;;;;;;22.71;64.89;98725.13;5030823;27;103930;-77
2022/08/01 05:46:07;;;;;;;2.30;1.63;;;;;;;22.84;64.78;98728.81;5029493;27;103844;-78
2022/08/01 05:48:35;;;;;;;3.55;1.95;;;;;;;22.83;64.92;98723.59;5028529;27;103191;-73
2022/08/01 05:51:03;;;;;;;2.17;1.60;;;;;;;22.90;64.62;98732.59;5033535;27;102663;-74
2022/08/01 05:53:34;;;;;;;1.95;1.83;;;;;;;23.07;64.41;98729.47;5026676;27;102666;-74
2022/08/01 05:56:03;;;;;;;2.22;2.03;;;;;;;22.98;64.96;98732.50;5027232;27;104055;-74
2022/08/01 05:58:31;;;;;;;2.40;2.20;;;;;;;23.01;64.93;98730.28;5029348;27;103430;-73
2022/08/01 06:00:59;;;;;;;2.30;1.75;;;;;;;23.22;63.93;98734.00;5034277;27;102641;-74
2022/08/01 06:03:30;;;;;;;2.40;2.20;;;;;;;23.32;63.65;98727.31;5027738;27;103961;-74
2022/08/01 06:06:01;;;;;;;2.38;1.90;;;;;;;23.36;64.20;98735.81;5026008;27;103303;-74
2022/08/01 06:08:32;;;;;;;1.80;1.70;;;;;;;23.38;64.34;98729.25;5030393;27;103564;-74
2022/08/01 06:11:00;;;;;;;4.00;1.95;;;;;;;23.31;63.90;98733.72;5031712;27;103001;-74
2022/08/01 06:13:29;;;;;;;2.15;1.50;;;;;;;23.38;63.67;98734.63;5037401;27;102636;-81
2022/08/01 06:15:57;;;;;;;3.08;2.08;;;;;;;23.56;63.24;98734.22;5028131;27;103670;-73
2022/08/01 06:18:25;;;;;;;2.10;1.40;;;;;;;23.64;63.57;98737.63;5030840;27;103222;-73
2022/08/01 06:20:53;;;;;;;2.78;1.55;;;;;;;23.77;63.05;98734.22;5030124;27;103283;-72
2022/08/01 06:23:21;;;;;;;4.28;1.67;;;;;;;23.77;63.04;98736.06;5026813;27;102760;-73
2022/08/01 06:26:00;;;;;;;1.85;1.75;;;;;;;23.82;62.60;98733.63;5033966;27;103551;-73
2022/08/01 06:28:29;;;;;;;2.42;1.30;;;;;;;23.91;62.13;98740.56;5033286;27;103351;-73
2022/08/01 06:30:59;;;;;;;4.32;1.30;;;;;;;24.03;62.65;98736.28;5032588;27;102749;-78
2022/08/01 06:33:27;;;;;;;1.85;1.52;;;;;;;23.99;62.57;98738.56;5031323;27;103942;-81
2022/08/01 06:35:55;;;;;;;3.05;1.60;;;;;;;24.20;61.78;98737.69;5028139;27;103424;-74
2022/08/01 06:38:25;;;;;;;3.58;2.10;;;;;;;24.25;61.46;98732.56;5028941;27;103158;-75
2022/08/01 06:40:53;;;;;;;2.58;1.92;;;;;;;24.24;61.95;98733.59;5028493;27;102710;-73
2022/08/01 06:43:24;;;;;;;1.70;1.55;;;;;;;24.47;61.42;98731.47;5026999;27;102920;-72
2022/08/01 06:45:56;;;;;;;1.40;1.30;;;;;;;23.98;62.14;98738.75;5024752;27;103391;-72
2022/08/01 06:48:24;;;;;;;1.75;1.40;;;;;;;24.05;62.59;98736.94;5026858;27;103335;-73
2022/08/01 06:51:07;;;;;;;2.67;1.42;;;;;;;24.30;61.98;98730.09;5024948;27;102625;-72
2022/08/01 06:53:37;;;;;;;3.05;2.05;;;;;;;24.53;61.36;98738.78;5032659;27;103940;-72
2022/08/01 06:56:08;;;;;;;1.45;1.35;;;;;;;24.48;60.86;98741.22;5031692;27;103249;-73
2022/08/01 06:58:38;;;;;;;1.25;1.10;;;;;;;24.56;61.14;98741.06;5028935;27;103694;-72
2022/08/01 07:01:08;;;;;;;2.15;1.30;;;;;;;24.68;60.22;98750.28;5037125;27;102904;-73
2022/08/01 07:03:36;;;;;;;3.63;1.20;;;;;;;24.85;60.17;98744.56;5030012;27;104072;-72
2022/08/01 07:06:22;;;;;;;1.90;1.42;;;;;;;24.72;60.21;98745.31;5035556;27;103358;-73
2022/08/01 07:08:50;;;;;;;2.00;1.45;;;;;;;24.48;60.88;98745.78;5023451;27;104576;-72
2022/08/01 07:11:18;;;;;;;1.92;1.40;;;;;;;24.42;60.55;98744.72;5026175;27;103166;-72
2022/08/01 07:13:46;;;;;;;2.50;1.83;;;;;;;24.90;59.58;98742.94;5022596;27;104549;-72
2022/08/01 07:16:18;;;;;;;1.90;1.27;;;;;;;24.38;60.97;98750.72;5024469;27;104117;-72
2022/08/01 07:18:48;;;;;;;3.58;1.50;;;;;;;24.47;60.85;98747.69;5029594;27;103282;-72
2022/08/01 07:21:18;;;;;;;1.58;1.42;;;;;;;24.50;61.37;98746.44;5034417;27;102618;-73
2022/08/01 07:24:07;;;;;;;2.45;1.25;;;;;;;24.83;59.74;98736.69;5035013;27;103897;-72
2022/08/01 07:26:43;;;;;;;2.40;1.50;;;;;;;24.46;61.05;98735.19;5030416;27;103306;-73
2022/08/01 07:29:21;;;;;;;1.40;1.30;;;;;;;24.93;59.71;98745.25;5029256;27;103551;-72
2022/08/01 07:31:50;;;;;;;2.45;1.17;;;;;;;25.00;59.87;98745.28;5032838;27;102898;-72
2022/08/01 07:34:18;;;;;;;2.47;1.40;;;;;;;24.69;60.69;98735.75;5029557;27;102699;-72
2022/08/01 07:36:46;;;;;;;3.35;1.60;;;;;;;24.79;60.27;98736.25;5032570;27;104193;-72
2022/08/01 07:39:14;;;;;;;2.63;1.45;;;;;;;24.88;60.75;98736.06;5027263;27;103914;-73
2022/08/01 07:41:44;;;;;;;2.10;1.63;;;;;;;24.87;59.68;98732.53;5029277;27;103343;-72
2022/08/01 07:44:33;;;;;;;1.65;1.42;;;;;;;25.17;58.88;98730.38;5030923;27;102995;-73
2022/08/01 07:47:02;;;;;;;1.77;1.50;;;;;;;25.72;57.70;98730.13;5029200;27;103790;-72
2022/08/01 07:49:30;;;;;;;2.60;1.55;;;;;;;25.25;58.38;98738.31;4994865;27;103127;-72
2022/08/01 07:52:04;;;;;;;3.55;1.25;;;;;;;25.43;58.58;98738.59;5021709;27;102919;-72
2022/08/01 07:54:32;;;;;;;2.75;1.75;;;;;;;25.59;57.58;98740.94;4983646;27;105028;-72
2022/08/01 07:57:02;;;;;;;1.83;1.58;;;;;;;25.72;56.91;98727.41;5014478;28;103441;-71
2022/08/01 07:59:30;;;;;;;1.85;1.60;;;;;;;26.25;56.94;98731.00;5011340;27;103343;-72
2022/08/01 08:01:58;;;;;;;4.88;1.40;;;;;;;25.59;58.80;98740.09;5009381;28;102944;-73
2022/08/01 08:04:28;;;;;;;2.50;1.50;;;;;;;25.83;57.47;98736.78;4999903;28;103069;-72
2022/08/01 08:06:55;;;;;;;2.35;1.60;;;;;;;25.62;57.88;98742.41;5009608;28;103321;-72
2022/08/01 08:09:23;;;;;;;3.55;1.70;;;;;;;25.32;58.65;98736.44;5005127;28;102558;-73
2022/08/01 08:11:51;;;;;;;2.17;1.60;;;;;;;25.37;58.40;98742.09;5008296;28;102788;-72
2022/08/01 08:14:22;;;;;;;4.68;1.60;;;;;;;26.64;55.12;98727.38;5004943;28;103148;-73
2022/08/01 08:16:59;;;;;;;3.97;1.40;;;;;;;27.53;52.42;98727.50;5002247;28;103387;-73
2022/08/01 08:19:33;;;;;;;4.25;1.65;;;;;;;27.15;53.54;98724.72;5005727;27;103193;-74
2022/08/01 08:22:06;;;;;;;2.72;1.20;;;;;;;26.66;54.67;98730.72;5032585;27;103258;-76
2022/08/01 08:24:35;;;;;;;5.10;1.80;;;;;;;26.87;54.69;98722.34;5017483;27;103105;-75
2022/08/01 08:27:12;;;;;;;1.67;1.45;;;;;;;27.38;53.44;98721.47;5032478;27;103842;-77
2022/08/01 08:29:40;;;;;;;2.38;1.85;;;;;;;26.59;53.70;98723.63;5036771;27;103306;-73
2022/08/01 08:32:09;;;;;;;3.88;1.60;;;;;;;27.34;52.91;98722.97;5033332;27;102639;-78
2022/08/01 08:34:39;;;;;;;2.70;1.63;;;;;;;27.98;51.88;98726.31;5030961;27;103823;-77
2022/08/01 08:37:07;;;;;;;2.65;1.63;;;;;;;28.63;50.04;98724.91;5036763;27;103376;-74
2022/08/01 08:39:36;;;;;;;2.33;1.45;;;;;;;28.80;48.69;98729.78;5030872;27;103801;-77
2022/08/01 08:42:10;;;;;;;3.58;2.08;;;;;;;28.30;49.19;98718.97;5035376;27;103074;-76
2022/08/01 08:44:39;;;;;;;6.00;1.60;;;;;;;27.76;51.07;98730.47;5039837;27;104097;-77
2022/08/01 08:47:14;;;;;;;1.75;1.40;;;;;;;27.25;52.93;98730.53;5032011;27;103013;-77
2022/08/01 08:49:50;;;;;;;1.92;1.60;;;;;;;28.08;50.41;98726.69;5029718;27;103295;-77
2022/08/01 08:52:20;;;;;;;5.50;2.10;;;;;;;28.28;49.10;98718.34;5030656;27;102590;-74
2022/08/01 08:54:49;;;;;;;1.92;1.70;;;;;;;27.40;53.00;98722.09;5034090;27;104437;-74
2022/08/01 08:57:20;;;;;;;3.97;1.90;;;;;;;27.35;52.71;98724.63;5038501;27;104336;-74
2022/08/01 08:59:48;;;;;;;3.70;1.88;;;;;;;27.45;52.53;98727.75;5026723;27;103580;-74
2022/08/01 09:02:16;;;;;;;3.45;2.00;;;;;;;26.83;53.46;98726.53;5035179;27;103155;-73
2022/08/01 09:04:44;;;;;;;4.45;1.92;;;;;;;27.27;52.12;98722.16;5033772;27;102838;-74
2022/08/01 09:07:14;;;;;;;4.45;1.73;;;;;;;28.13;50.80;98721.41;5032230;27;104056;-74
2022/08/01 09:09:42;;;;;;;2.85;1.67;;;;;;;27.30;52.30;98722.56;5028345;27;103728;-73
2022/08/01 09:12:10;;;;;;;1.95;1.48;;;;;;;27.69;52.91;98721.53;5029298;27;102700;-74
2022/08/01 09:14:46;;;;;;;2.17;1.98;;;;;;;28.43;50.10;98726.16;5036548;27;102933;-73
2022/08/01 09:17:14;;;;;;;2.78;1.88;;;;;;;28.49;50.88;98725.28;5039548;27;103405;-73
2022/08/01 09:19:45;;;;;;;6.63;2.05;;;;;;;28.73;49.19;98724.41;5030031;27;104150;-74
2022/08/01 09:22:17;;;;;;;3.17;1.90;;;;;;;28.82;49.34;98727.66;5034605;27;102969;-74
2022/08/01 09:24:59;;;;;;;2.20;2.00;;;;;;;28.40;49.22;98732.03;5029509;27;102954;-74
2022/08/01 09:27:26;;;;;;;3.75;2.25;;;;;;;28.22;49.91;98721.13;5028159;27;103996;-75
2022/08/01 09:30:07;;;;;;;2.88;2.15;;;;;;;27.99;50.29;98733.41;5040258;27;103288;-73
2022/08/01 09:32:35;;;;;;;2.75;2.20;;;;;;;27.23;52.17;98737.22;5031193;27;102591;-73
2022/08/01 09:35:23;;;;;;;3.05;2.13;;;;;;;26.98;53.81;98740.66;5021412;28;103424;-73
2022/08/01 09:38:18;;;;;;;4.55;2.83;;;;;;;26.27;54.70;98733.50;5032292;27;104010;-75
2022/08/01 09:40:52;;;;;;;3.38;2.80;;;;;;;26.11;55.60;98736.59;5032530;27;104692;-75
2022/08/01 09:43:21;;;;;;;4.25;2.83;;;;;;;27.23;53.43;98734.50;5034096;27;102799;-75
2022/08/01 09:45:49;;;;;;;3.85;2.80;;;;;;;27.71;51.99;98734.88;5031776;27;103898;-75
2022/08/01 09:48:23;;;;;;;3.67;3.05;;;;;;;27.21;53.07;98739.28;5031487;27;103459;-75
2022/08/01 09:50:57;;;;;;;3.15;2.90;;;;;;;28.16;51.28;98739.97;5028800;27;103323;-74
2022/08/01 09:53:46;;;;;;;5.95;3.30;;;;;;;29.07;48.28;98725.69;5030280;27;103007;-75
2022/08/01 09:56:20;;;;;;;5.55;2.90;;;;;;;29.93;47.31;98719.88;5028312;27;103053;-75
2022/08/01 09:58:54;;;;;;;5.25;3.13;;;;;;;30.22;45.36;98725.28;5029742;27;103042;-75
2022/08/01 10:01:28;;;;;;;4.82;2.97;;;;;;;28.67;48.85;98733.47;5029863;27;103108;-75
2022/08/01 10:04:07;;;;;;;4.68;3.63;;;;;;;27.78;50.36;98730.22;5030663;27;103828;-75
2022/08/01 10:06:37;;;;;;;5.88;3.22;;;;;;;28.11;50.27;98726.25;5036740;27;102715;-74
2022/08/01 10:09:07;;;;;;;4.03;3.00;;;;;;;27.97;50.09;98721.94;5028141;27;104314;-75
2022/08/01 10:11:38;;;;;;;3.08;2.80;;;;;;;29.28;48.66;98717.06;5029202;27;103186;-75
2022/08/01 10:14:08;;;;;;;3.83;3.00;;;;;;;28.72;48.35;98714.56;5036822;27;103512;-75
2022/08/01 10:16:37;;;;;;;2.80;2.50;;;;;;;28.68;48.75;98716.09;5033696;27;103559;-74
2022/08/01 10:19:08;;;;;;;2.92;2.70;;;;;;;28.93;47.49;98714.13;5013971;27;103396;-76
2022/08/01 10:21:43;;;;;;;4.32;2.50;;;;;;;28.77;48.61;98714.75;5030672;27;103239;-75
2022/08/01 10:24:29;;;;;;;2.58;2.38;;;;;;;28.21;48.84;98714.06;5035845;27;102871;-75
2022/08/01 10:27:04;;;;;;;2.60;2.40;;;;;;;28.08;48.94;98709.56;5034304;27;102782;-75
2022/08/01 10:29:40;;;;;;;2.35;2.00;;;;;;;29.06;47.15;98707.69;5029324;27;103423;-75
2022/08/01 10:32:31;;;;;;;2.38;2.17;;;;;;;29.54;46.85;98707.69;5031069;27;103311;-74
2022/08/01 10:35:00;;;;;;;2.28;2.10;;;;;;;30.36;45.07;98699.44;5027436;27;102888;-72
2022/08/01 10:37:36;;;;;;;2.88;2.40;;;;;;;30.80;44.52;98698.00;5025869;27;102786;-74
2022/08/01 10:40:21;;;;;;;3.95;2.30;;;;;;;30.64;44.64;98696.00;5020933;27;103387;-73
2022/08/01 10:43:00;;;;;;;2.17;2.08;;;;;;;31.24;42.76;98693.75;5030263;27;103287;-78
2022/08/01 10:45:35;;;;;;;2.38;2.17;;;;;;;30.43;43.67;98697.44;5025210;27;103150;-78
2022/08/01 10:48:10;;;;;;;3.75;1.95;;;;;;;31.17;42.90;98694.94;5020720;27;102848;-78
2022/08/01 10:50:43;;;;;;;3.45;2.10;;;;;;;30.38;42.41;98685.59;5030515;27;103634;-77
2022/08/01 10:53:17;;;;;;;2.25;2.00;;;;;;;30.02;44.01;98686.63;5031280;27;103227;-78
2022/08/01 10:56:01;;;;;;;2.67;2.10;;;;;;;29.13;44.22;98698.41;5031325;27;102904;-76
2022/08/01 10:58:33;;;;;;;2.40;2.20;;;;;;;29.36;45.02;98692.25;5038573;27;102772;-77
2022/08/01 11:01:19;;;;;;;2.60;2.20;;;;;;;30.77;43.26;98665.75;5023703;27;104360;-76
2022/08/01 11:04:05;;;;;;;2.90;2.70;;;;;;;30.96;42.45;98671.91;5027426;27;103338;-78
2022/08/01 11:06:47;;;;;;;2.60;2.40;;;;;;;30.15;42.83;98678.22;5027592;27;102886;-76
2022/08/01 11:09:29;;;;;;;2.33;2.03;;;;;;;30.22;43.35;98678.97;5029393;27;103958;-78
2022/08/01 11:12:08;;;;;;;;;;;;;;;29.91;44.47;98673.84;5026068;27;103290;-76
2022/08/01 11:15:27;;;;;;;3.10;2.10;;;;;;;29.69;44.96;98670.81;5029402;27;103313;-75
2022/08/01 11:18:01;;;;;;;2.60;2.10;;;;;;;30.63;42.31;98671.69;5024933;27;103183;-80
2022/08/01 11:20:33;;;;;;;2.57;2.13;;;;;;;30.14;42.33;98662.97;5033800;27;103611;-77
2022/08/01 11:23:22;;;;;;;2.83;2.20;;;;;;;31.04;41.24;98659.78;5030497;27;103423;-79
2022/08/01 11:26:14;;;;;;;2.00;1.90;;;;;;;30.91;41.57;98650.78;5028357;27;103131;-79
2022/08/01 11:29:15;;;;;;;4.25;2.45;;;;;;;29.91;43.21;98654.78;5028409;27;103035;-76
2022/08/01 11:31:52;;;;;;;2.80;2.35;;;;;;;30.01;42.57;98644.13;5028380;27;102979;-76
2022/08/01 11:34:54;;;;;;;2.28;2.08;;;;;;;30.64;41.76;98646.09;5024369;27;103314;-74
2022/08/01 11:37:26;;;;;;;4.30;2.10;;;;;;;29.15;44.58;98658.19;5019979;27;103143;-79
2022/08/01 11:40:17;;;;;;;2.90;2.13;;;;;;;30.56;42.85;98636.41;5026507;27;103464;-78
2022/08/01 11:42:45;;;;;;;2.50;2.10;;;;;;;30.75;42.38;98634.34;5024280;27;103008;-76
2022/08/01 11:45:17;;;;;;;3.83;2.10;;;;;;;29.89;43.73;98635.13;5026160;27;103098;-77
2022/08/01 11:47:50;;;;;;;2.37;2.17;;;;;;;31.16;42.04;98638.75;5024682;27;103119;-77
2022/08/01 11:50:35;;;;;;;2.27;1.90;;;;;;;29.51;43.95;98642.84;5029353;27;102928;-79
2022/08/01 11:53:05;;;;;;;2.70;1.90;;;;;;;30.03;43.40;98622.09;5037156;27;103105;-74